createdAt,value
2019-04-20T00:01:03.523Z,8.70
2019-04-20T00:03:38.054Z,8.70
2019-04-20T00:06:05.034Z,8.60
2019-04-20T00:08:38.236Z,8.60
2019-04-20T00:11:14.250Z,8.60
2019-04-20T00:13:47.690Z,8.50
2019-04-20T00:16:10.280Z,8.50
2019-04-20T00:18:47.988Z,8.50
2019-04-20T00:21:30.907Z,8.50
2019-04-20T00:24:10.298Z,8.50
2019-04-20T00:27:08.820Z,8.50
2019-04-20T00:29:26.606Z,8.40
2019-04-20T00:31:53.863Z,8.40
2019-04-20T00:34:18.049Z,8.50
2019-04-20T00:36:43.402Z,8.50
2019-04-20T00:39:15.147Z,8.40
2019-04-20T00:41:51.633Z,8.50
2019-04-20T00:44:23.346Z,8.50
2019-04-20T00:47:01.918Z,8.50
2019-04-20T00:49:36.240Z,8.50
2019-04-20T00:52:22.506Z,8.40
2019-04-20T00:54:24.183Z,8.40
2019-04-20T00:57:05.795Z,8.50
2019-04-20T00:59:42.436Z,8.50
2019-04-20T01:02:13.686Z,8.40
2019-04-20T01:04:47.574Z,8.30
2019-04-20T01:07:23.351Z,8.30
2019-04-20T01:10:05.087Z,8.30
2019-04-20T01:12:38.412Z,8.20
2019-04-20T01:15:11.785Z,8.10
2019-04-20T01:17:41.466Z,8.00
2019-04-20T01:20:11.883Z,7.90
2019-04-20T01:22:50.978Z,7.80
2019-04-20T01:25:24.244Z,7.80
2019-04-20T01:28:05.493Z,7.70
2019-04-20T01:30:25.248Z,7.60
2019-04-20T01:33:03.691Z,7.60
2019-04-20T01:35:39.377Z,7.50
2019-04-20T01:38:12.539Z,7.50
2019-04-20T01:40:23.553Z,7.50
2019-04-20T01:42:53.442Z,7.50
2019-04-20T01:45:29.353Z,7.50
2019-04-20T01:47:57.754Z,7.50
2019-04-20T01:50:30.038Z,7.50
2019-04-20T01:53:10.210Z,7.40
2019-04-20T01:56:01.424Z,7.40
2019-04-20T02:00:57.265Z,7.40
2019-04-20T02:03:44.838Z,7.40
2019-04-20T02:06:15.134Z,7.30
2019-04-20T02:08:44.105Z,7.30
2019-04-20T02:11:21.305Z,7.20
2019-04-20T02:13:51.635Z,7.20
2019-04-20T02:16:27.604Z,7.20
2019-04-20T02:19:08.250Z,7.10
2019-04-20T02:21:40.448Z,7.00
2019-04-20T02:23:57.998Z,7.00
2019-04-20T02:26:24.266Z,7.00
2019-04-20T02:29:20.231Z,6.90
2019-04-20T02:32:12.048Z,7.00
2019-04-20T02:34:44.708Z,7.10
2019-04-20T02:37:13.853Z,7.10
2019-04-20T02:39:46.250Z,7.10
2019-04-20T02:42:19.684Z,7.10
2019-04-20T02:47:21.527Z,7.10
2019-04-20T02:52:24.012Z,7.10
2019-04-20T02:54:54.984Z,7.00
2019-04-20T02:57:37.876Z,7.10
2019-04-20T03:02:10.301Z,7.00
2019-04-20T03:04:36.310Z,6.90
2019-04-20T03:07:11.862Z,6.90
2019-04-20T03:09:52.634Z,6.90
2019-04-20T03:12:30.404Z,6.90
2019-04-20T03:14:47.296Z,6.80
2019-04-20T03:17:31.063Z,6.80
2019-04-20T03:19:48.709Z,6.70
2019-04-20T03:22:39.306Z,6.60
2019-04-20T03:25:05.142Z,6.50
2019-04-20T03:27:38.137Z,6.60
2019-04-20T03:31:15.639Z,6.60
2019-04-20T03:33:11.935Z,6.60
2019-04-20T03:35:35.166Z,6.60
2019-04-20T03:38:09.247Z,6.60
2019-04-20T03:40:29.361Z,6.60
2019-04-20T03:42:46.551Z,6.60
2019-04-20T03:45:20.112Z,6.60
2019-04-20T03:48:00.712Z,6.60
2019-04-20T03:50:40.890Z,6.60
2019-04-20T03:53:19.895Z,6.50
2019-04-20T03:56:04.785Z,6.50
2019-04-20T03:58:53.258Z,6.50
2019-04-20T04:02:03.379Z,6.50
2019-04-20T04:04:28.465Z,6.50
2019-04-20T04:06:47.031Z,6.50
2019-04-20T04:09:24.893Z,6.50
2019-04-20T04:12:03.756Z,6.50
2019-04-20T04:14:21.940Z,6.40
2019-04-20T04:16:57.250Z,6.40
2019-04-20T04:19:31.205Z,6.40
2019-04-20T04:22:11.570Z,6.30
2019-04-20T04:24:38.868Z,6.30
2019-04-20T04:27:15.009Z,6.40
2019-04-20T04:29:51.266Z,6.40
2019-04-20T04:32:37.568Z,6.50
2019-04-20T04:34:52.677Z,6.50
2019-04-20T04:37:24.110Z,6.40
2019-04-20T04:40:01.161Z,6.40
2019-04-20T04:42:30.319Z,6.40
2019-04-20T04:44:51.635Z,6.40
2019-04-20T04:47:14.913Z,6.50
2019-04-20T04:49:58.163Z,6.50
2019-04-20T04:52:29.384Z,6.60
2019-04-20T04:55:06.657Z,6.60
2019-04-20T04:57:26.360Z,6.60
2019-04-20T04:59:57.350Z,6.60
2019-04-20T05:02:32.566Z,6.60
2019-04-20T05:05:32.389Z,6.60
2019-04-20T05:07:52.162Z,6.60
2019-04-20T05:10:14.344Z,6.60
2019-04-20T05:12:44.286Z,6.60
2019-04-20T05:15:29.593Z,6.70
2019-04-20T05:18:07.308Z,6.70
2019-04-20T05:20:43.869Z,6.70
2019-04-20T05:23:21.678Z,6.80
2019-04-20T05:26:12.570Z,6.90
2019-04-20T05:28:32.270Z,7.00
2019-04-20T05:30:57.047Z,7.10
2019-04-20T05:33:34.318Z,7.30
2019-04-20T05:36:14.167Z,7.50
2019-04-20T05:38:46.953Z,7.60
2019-04-20T05:41:13.974Z,7.70
2019-04-20T05:44:01.614Z,7.80
2019-04-20T05:46:38.044Z,7.90
2019-04-20T05:49:11.730Z,8.00
2019-04-20T05:51:40.704Z,8.10
2019-04-20T05:54:17.931Z,8.30
2019-04-20T05:59:11.685Z,8.60
2019-04-20T06:01:52.687Z,8.70
2019-04-20T06:04:18.824Z,8.70
2019-04-20T06:06:49.651Z,8.90
2019-04-20T06:09:22.987Z,9.10
2019-04-20T06:12:07.763Z,9.20
2019-04-20T06:14:44.330Z,9.30
2019-04-20T06:17:34.545Z,9.50
2019-04-20T06:20:06.174Z,9.70
2019-04-20T06:22:52.770Z,9.90
2019-04-20T06:27:52.478Z,10.30
2019-04-20T06:30:17.558Z,10.50
2019-04-20T06:33:45.219Z,10.70
2019-04-20T06:36:25.856Z,10.80
2019-04-20T06:38:50.586Z,10.90
2019-04-20T06:43:42.135Z,11.10
2019-04-20T06:46:09.869Z,11.20
2019-04-20T06:48:44.479Z,11.30
2019-04-20T06:51:09.200Z,11.40
2019-04-20T06:53:52.818Z,11.50
2019-04-20T06:56:35.439Z,11.60
2019-04-20T06:59:12.545Z,11.70
2019-04-20T07:01:48.829Z,11.80
2019-04-20T07:04:37.653Z,11.80
2019-04-20T07:06:54.899Z,12.00
2019-04-20T07:09:21.767Z,12.10
2019-04-20T07:11:46.643Z,12.10
2019-04-20T07:14:04.084Z,12.30
2019-04-20T07:17:02.842Z,12.40
2019-04-20T07:19:40.354Z,12.50
2019-04-20T07:22:30.930Z,12.60
2019-04-20T07:27:27.824Z,12.90
2019-04-20T07:29:56.533Z,13.00
2019-04-20T07:32:17.837Z,13.10
2019-04-20T07:35:01.552Z,13.20
2019-04-20T07:37:57.185Z,13.40
2019-04-20T07:40:13.821Z,13.50
2019-04-20T07:42:49.472Z,13.60
2019-04-20T07:45:24.075Z,13.70
2019-04-20T07:47:46.485Z,13.70
2019-04-20T07:50:13.217Z,13.80
2019-04-20T07:52:40.830Z,14.00
2019-04-20T07:57:48.872Z,14.20
2019-04-20T08:00:35.473Z,14.30
2019-04-20T08:03:18.559Z,14.40
2019-04-20T08:05:45.702Z,14.50
2019-04-20T08:08:24.151Z,14.60
2019-04-20T08:10:53.818Z,14.60
2019-04-20T08:13:33.347Z,14.80
2019-04-20T08:16:11.829Z,14.90
2019-04-20T08:18:35.026Z,14.90
2019-04-20T08:21:06.746Z,15.10
2019-04-20T08:23:35.080Z,15.10
2019-04-20T08:25:53.253Z,15.30
2019-04-20T08:28:31.756Z,15.30
2019-04-20T08:31:24.552Z,15.40
2019-04-20T08:34:18.610Z,15.60
2019-04-20T08:36:39.884Z,15.70
2019-04-20T08:39:19.959Z,15.80
2019-04-20T08:41:45.284Z,16.00
2019-04-20T08:44:38.070Z,16.10
2019-04-20T08:47:01.356Z,16.30
2019-04-20T08:49:25.173Z,16.40
2019-04-20T08:51:55.659Z,16.60
2019-04-20T08:54:22.023Z,16.70
2019-04-20T08:56:44.337Z,16.80
2019-04-20T08:59:06.759Z,17.00
2019-04-20T09:01:37.757Z,17.20
2019-04-20T09:04:17.766Z,17.40
2019-04-20T09:06:54.095Z,17.50
2019-04-20T09:09:39.216Z,17.70
2019-04-20T09:12:02.169Z,17.80
2019-04-20T09:14:23.400Z,17.90
2019-04-20T09:17:06.837Z,18.10
2019-04-20T09:19:41.675Z,18.30
2019-04-20T09:22:33.159Z,18.40
2019-04-20T09:25:37.656Z,18.60
2019-04-20T09:27:37.415Z,18.70
2019-04-20T09:30:11.288Z,18.80
2019-04-20T09:32:50.516Z,18.80
2019-04-20T09:35:25.382Z,19.00
2019-04-20T09:38:02.740Z,19.20
2019-04-20T09:40:35.529Z,19.20
2019-04-20T09:42:52.631Z,19.30
2019-04-20T09:45:37.324Z,19.40
2019-04-20T09:48:06.755Z,19.50
2019-04-20T09:50:55.479Z,19.60
2019-04-20T09:53:20.918Z,19.80
2019-04-20T09:55:56.747Z,19.90
2019-04-20T09:58:23.991Z,20.00
2019-04-20T10:01:03.175Z,20.00
2019-04-20T10:03:18.479Z,20.10
2019-04-20T10:05:49.681Z,20.30
2019-04-20T10:08:19.688Z,20.50
2019-04-20T10:10:51.183Z,20.60
2019-04-20T10:13:21.580Z,20.70
2019-04-20T10:15:51.569Z,20.80
2019-04-20T10:18:21.890Z,21.00
2019-04-20T10:20:53.541Z,21.10
2019-04-20T10:23:24.848Z,21.30
2019-04-20T10:25:54.882Z,21.50
2019-04-20T10:28:25.640Z,21.60
2019-04-20T10:30:56.748Z,21.80
2019-04-20T10:33:27.868Z,21.90
2019-04-20T10:36:01.872Z,21.90
2019-04-20T10:38:37.343Z,21.90
2019-04-20T10:41:14.880Z,22.00
2019-04-20T10:43:41.241Z,22.10
2019-04-20T10:46:15.099Z,22.30
2019-04-20T10:48:49.163Z,22.40
2019-04-20T10:51:18.251Z,22.50
2019-04-20T10:53:50.906Z,22.60
2019-04-20T10:56:23.203Z,22.80
2019-04-20T10:58:54.324Z,23.00
2019-04-20T11:01:25.386Z,23.10
2019-04-20T11:03:56.457Z,23.20
2019-04-20T11:06:26.934Z,23.20
2019-04-20T11:08:56.766Z,23.30
2019-04-20T11:11:29.162Z,23.30
2019-04-20T11:14:00.750Z,23.50
2019-04-20T11:16:30.605Z,23.60
2019-04-20T11:19:01.045Z,23.70
2019-04-20T11:21:32.271Z,23.80
2019-04-20T11:24:02.553Z,23.80
2019-04-20T11:26:35.356Z,23.80
2019-04-20T11:29:04.286Z,23.90
2019-04-20T11:31:39.490Z,24.20
2019-04-20T11:34:06.064Z,24.70
2019-04-20T11:36:37.082Z,25.30
2019-04-20T11:39:11.604Z,25.80
2019-04-20T11:41:43.609Z,26.00
2019-04-20T11:44:14.078Z,26.10
2019-04-20T11:46:45.009Z,26.40
2019-04-20T11:49:15.482Z,26.70
2019-04-20T11:51:45.620Z,26.70
2019-04-20T11:54:16.616Z,26.90
2019-04-20T11:56:47.303Z,27.20
2019-04-20T11:59:17.198Z,27.70
2019-04-20T12:01:59.010Z,28.00
2019-04-20T12:04:52.236Z,28.00
2019-04-20T12:07:17.134Z,28.00
2019-04-20T12:09:47.618Z,28.00
2019-04-20T12:12:29.262Z,28.20
2019-04-20T12:14:48.998Z,28.40
2019-04-20T12:17:19.610Z,28.70
2019-04-20T12:19:50.152Z,28.90
2019-04-20T12:22:21.477Z,29.20
2019-04-20T12:24:52.185Z,29.30
2019-04-20T12:27:22.889Z,29.60
2019-04-20T12:29:54.028Z,30.00
2019-04-20T12:32:27.099Z,30.20
2019-04-20T12:34:56.067Z,30.20
2019-04-20T12:37:27.020Z,29.80
2019-04-20T12:39:57.461Z,30.00
2019-04-20T12:42:28.741Z,30.30
2019-04-20T12:45:11.362Z,30.00
2019-04-20T12:47:41.827Z,29.80
2019-04-20T12:50:19.698Z,29.90
2019-04-20T12:52:50.309Z,29.90
2019-04-20T12:55:20.885Z,29.50
2019-04-20T12:57:50.872Z,29.60
2019-04-20T13:00:21.534Z,29.70
2019-04-20T13:02:53.452Z,29.70
2019-04-20T13:05:23.874Z,29.90
2019-04-20T13:07:58.956Z,30.00
2019-04-20T13:10:25.665Z,30.20
2019-04-20T13:13:14.424Z,30.00
2019-04-20T13:16:04.562Z,30.00
2019-04-20T13:18:57.244Z,30.30
2019-04-20T13:21:27.259Z,30.30
2019-04-20T13:23:57.474Z,30.40
2019-04-20T13:26:28.962Z,30.70
2019-04-20T13:28:59.424Z,30.80
2019-04-20T13:31:29.751Z,31.10
2019-04-20T13:34:01.547Z,31.10
2019-04-20T13:36:32.587Z,31.20
2019-04-20T13:39:03.945Z,31.10
2019-04-20T13:41:33.820Z,31.00
2019-04-20T13:44:04.869Z,31.20
2019-04-20T13:46:36.794Z,31.20
2019-04-20T13:49:07.072Z,31.20
2019-04-20T13:51:59.070Z,31.40
2019-04-20T13:54:29.858Z,31.30
2019-04-20T13:57:01.848Z,31.50
2019-04-20T13:59:39.952Z,31.80
2019-04-20T14:02:28.936Z,31.70
2019-04-20T14:05:02.606Z,31.50
2019-04-20T14:07:35.549Z,31.50
2019-04-20T14:10:07.277Z,31.60
2019-04-20T14:12:45.124Z,31.30
2019-04-20T14:15:11.072Z,30.80
2019-04-20T14:17:41.426Z,30.60
2019-04-20T14:20:15.167Z,30.80
2019-04-20T14:22:43.110Z,31.10
2019-04-20T14:25:15.858Z,31.30
2019-04-20T14:27:46.652Z,31.40
2019-04-20T14:30:17.275Z,31.60
2019-04-20T14:32:48.211Z,31.90
2019-04-20T14:35:18.776Z,32.00
2019-04-20T14:37:49.911Z,32.10
2019-04-20T14:40:21.990Z,32.20
2019-04-20T14:42:54.979Z,32.20
2019-04-20T14:45:24.726Z,32.40
2019-04-20T14:47:55.797Z,32.60
2019-04-20T14:50:27.567Z,32.50
2019-04-20T14:52:59.795Z,32.60
2019-04-20T14:55:29.697Z,32.60
2019-04-20T14:58:05.781Z,32.30
2019-04-20T15:00:51.007Z,32.30
2019-04-20T15:03:49.940Z,32.40
2019-04-20T15:06:19.957Z,32.70
2019-04-20T15:08:50.453Z,32.70
2019-04-20T15:11:21.367Z,32.40
2019-04-20T15:13:53.051Z,32.60
2019-04-20T15:16:24.585Z,32.70
2019-04-20T15:19:17.575Z,32.90
2019-04-20T15:21:49.491Z,32.90
2019-04-20T15:24:20.255Z,33.10
2019-04-20T15:26:50.483Z,33.40
2019-04-20T15:29:24.159Z,33.60
2019-04-20T15:31:57.762Z,33.60
2019-04-20T15:34:30.917Z,33.50
2019-04-20T15:37:02.489Z,32.90
2019-04-20T15:39:32.901Z,32.40
2019-04-20T15:42:03.346Z,31.40
2019-04-20T15:44:33.532Z,30.90
2019-04-20T15:47:03.766Z,30.50
2019-04-20T15:49:36.000Z,30.40
2019-04-20T15:52:08.060Z,30.10
2019-04-20T15:54:41.026Z,29.80
2019-04-20T15:57:16.823Z,29.90
2019-04-20T15:59:48.527Z,29.80
2019-04-20T16:02:31.583Z,29.50
2019-04-20T16:05:14.444Z,29.00
2019-04-20T16:07:52.533Z,28.50
2019-04-20T16:10:19.623Z,27.80
2019-04-20T16:13:02.037Z,27.50
2019-04-20T16:15:22.071Z,27.20
2019-04-20T16:17:53.231Z,26.90
2019-04-20T16:20:25.409Z,26.40
2019-04-20T16:22:56.497Z,26.00
2019-04-20T16:25:45.795Z,25.60
2019-04-20T16:28:17.273Z,25.30
2019-04-20T16:30:47.618Z,25.10
2019-04-20T16:33:18.670Z,24.80
2019-04-20T16:35:50.168Z,24.50
2019-04-20T16:38:20.543Z,24.40
2019-04-20T16:40:50.674Z,24.20
2019-04-20T16:43:26.554Z,24.10
2019-04-20T16:45:52.980Z,24.00
2019-04-20T16:48:24.093Z,23.90
2019-04-20T16:50:55.328Z,23.80
2019-04-20T16:53:25.215Z,23.70
2019-04-20T16:55:55.071Z,23.50
2019-04-20T16:58:26.035Z,23.30
2019-04-20T17:00:55.950Z,23.20
2019-04-20T17:03:38.936Z,23.00
2019-04-20T17:05:57.997Z,22.90
2019-04-20T17:08:29.204Z,22.80
2019-04-20T17:11:00.012Z,22.60
2019-04-20T17:13:37.986Z,22.50
2019-04-20T17:16:02.607Z,22.40
2019-04-20T17:18:34.102Z,22.20
2019-04-20T17:21:07.795Z,22.00
2019-04-20T17:23:35.491Z,21.90
2019-04-20T17:26:08.205Z,21.70
2019-04-20T17:28:57.701Z,21.50
2019-04-20T17:31:45.527Z,21.40
2019-04-20T17:34:36.160Z,21.20
2019-04-20T17:36:50.597Z,20.90
2019-04-20T17:39:31.069Z,20.70
2019-04-20T17:42:08.609Z,20.50
2019-04-20T17:44:36.030Z,20.30
2019-04-20T17:47:09.652Z,20.00
2019-04-20T17:49:41.184Z,19.80
2019-04-20T17:52:26.726Z,19.50
2019-04-20T17:54:38.026Z,19.30
2019-04-20T17:57:09.287Z,19.10
2019-04-20T17:59:47.260Z,18.90
2019-04-20T18:03:04.632Z,18.70
2019-04-20T18:06:03.324Z,18.50
2019-04-20T18:08:31.006Z,18.40
2019-04-20T18:10:58.363Z,18.20
2019-04-20T18:13:23.971Z,18.00
2019-04-20T18:16:12.439Z,17.80
2019-04-20T18:18:57.447Z,17.70
2019-04-20T18:21:32.930Z,17.60
2019-04-20T18:24:05.250Z,17.50
2019-04-20T18:26:51.973Z,17.30
2019-04-20T18:29:26.136Z,17.20
2019-04-20T18:31:57.670Z,17.00
2019-04-20T18:35:01.696Z,16.90
2019-04-20T18:37:31.054Z,16.80
2019-04-20T18:40:07.372Z,16.60
2019-04-20T18:42:38.886Z,16.50
2019-04-20T18:45:21.681Z,16.40
2019-04-20T18:47:56.350Z,16.30
2019-04-20T18:50:18.623Z,16.20
2019-04-20T18:52:42.790Z,16.20
2019-04-20T18:55:20.155Z,16.10
2019-04-20T18:57:44.768Z,16.00
2019-04-20T19:00:22.764Z,16.00
2019-04-20T19:02:52.115Z,15.90
2019-04-20T19:05:21.836Z,15.80
2019-04-20T19:07:59.268Z,15.70
2019-04-20T19:10:28.772Z,15.70
2019-04-20T19:13:04.311Z,15.60
2019-04-20T19:16:05.522Z,15.60
2019-04-20T19:18:49.501Z,15.50
2019-04-20T19:21:06.933Z,15.50
2019-04-20T19:23:46.492Z,15.50
2019-04-20T19:26:14.589Z,15.40
2019-04-20T19:28:48.061Z,15.40
2019-04-20T19:31:30.773Z,15.30
2019-04-20T19:34:01.806Z,15.20
2019-04-20T19:36:28.087Z,15.10
2019-04-20T19:39:01.531Z,15.20
2019-04-20T19:41:32.013Z,15.20
2019-04-20T19:44:06.421Z,15.20
2019-04-20T19:49:04.128Z,15.40
2019-04-20T19:51:49.393Z,15.50
2019-04-20T19:54:20.473Z,15.60
2019-04-20T19:56:45.175Z,15.80
2019-04-20T19:59:10.986Z,15.80
2019-04-20T20:01:33.755Z,15.80
2019-04-20T20:04:06.389Z,15.90
2019-04-20T20:06:43.613Z,15.90
2019-04-20T20:09:12.486Z,15.80
2019-04-20T20:11:42.903Z,15.80
2019-04-20T20:14:13.284Z,15.80
2019-04-20T20:17:04.145Z,15.80
2019-04-20T20:19:32.720Z,15.80
2019-04-20T20:21:58.982Z,15.80
2019-04-20T20:24:19.447Z,15.80
2019-04-20T20:26:57.881Z,15.80
2019-04-20T20:29:29.733Z,15.80
2019-04-20T20:32:05.035Z,15.80
2019-04-20T20:34:30.965Z,15.80
2019-04-20T20:37:00.598Z,15.80
2019-04-20T20:39:30.960Z,15.90
2019-04-20T20:42:10.806Z,15.90
2019-04-20T20:44:42.932Z,15.90
2019-04-20T20:47:21.764Z,15.90
2019-04-20T20:49:58.525Z,15.90
2019-04-20T20:52:21.907Z,15.90
2019-04-20T20:54:49.835Z,15.90
2019-04-20T20:57:15.348Z,15.90
2019-04-20T20:59:51.318Z,15.80
2019-04-20T21:02:19.639Z,15.80
2019-04-20T21:04:45.761Z,15.80
2019-04-20T21:07:16.412Z,15.90
2019-04-20T21:09:46.468Z,15.90
2019-04-20T21:12:18.168Z,15.90
2019-04-20T21:14:49.033Z,16.00
2019-04-20T21:17:23.723Z,16.00
2019-04-20T21:20:07.344Z,16.00
2019-04-20T21:22:41.319Z,16.00
2019-04-20T21:24:56.772Z,16.00
2019-04-20T21:27:27.683Z,16.00
2019-04-20T21:29:59.965Z,16.00
2019-04-20T21:32:33.953Z,16.00
2019-04-20T21:35:06.493Z,15.90
2019-04-20T21:37:32.706Z,15.90
2019-04-20T21:40:15.735Z,15.80
2019-04-20T21:42:42.501Z,15.90
2019-04-20T21:45:14.426Z,15.90
2019-04-20T21:47:39.663Z,16.00
2019-04-20T21:50:25.358Z,16.00
2019-04-20T21:52:46.718Z,16.00
2019-04-20T21:55:14.108Z,16.00
2019-04-20T21:57:51.487Z,16.00
2019-04-20T22:00:42.498Z,15.90
2019-04-20T22:03:10.938Z,15.90
2019-04-20T22:05:38.514Z,15.90
2019-04-20T22:08:11.365Z,15.90
2019-04-20T22:10:40.776Z,15.90
2019-04-20T22:13:11.943Z,15.90
2019-04-20T22:15:50.520Z,16.00
2019-04-20T22:18:18.093Z,16.00
2019-04-20T22:21:01.698Z,15.90
2019-04-20T22:23:42.128Z,15.90
2019-04-20T22:26:03.887Z,15.80
2019-04-20T22:28:20.363Z,15.80
2019-04-20T22:30:50.461Z,15.80
2019-04-20T22:33:29.865Z,15.70
2019-04-20T22:36:01.113Z,15.70
2019-04-20T22:38:39.751Z,15.70
2019-04-20T22:41:13.349Z,15.60
2019-04-20T22:43:40.265Z,15.60
2019-04-20T22:46:09.571Z,15.50
2019-04-20T22:48:45.803Z,15.50
2019-04-20T22:51:26.402Z,15.50
2019-04-20T22:53:49.773Z,15.60
2019-04-20T22:56:29.964Z,15.50
2019-04-20T22:58:57.648Z,15.40
2019-04-20T23:01:29.852Z,15.40
2019-04-20T23:03:50.754Z,15.50
2019-04-20T23:06:20.828Z,15.50
2019-04-20T23:08:56.229Z,15.40
2019-04-20T23:11:26.984Z,15.50
2019-04-20T23:13:54.045Z,15.40
2019-04-20T23:16:29.882Z,15.40
2019-04-20T23:18:56.133Z,15.30
2019-04-20T23:21:26.352Z,15.30
2019-04-20T23:24:00.349Z,15.20
2019-04-20T23:26:33.539Z,15.20
2019-04-20T23:29:01.335Z,15.10
2019-04-20T23:31:32.282Z,15.10
2019-04-20T23:34:12.837Z,15.10
2019-04-20T23:36:39.097Z,15.10
2019-04-20T23:39:08.514Z,15.00
2019-04-20T23:41:42.569Z,15.10
2019-04-20T23:44:40.324Z,15.10
2019-04-20T23:47:25.962Z,15.00
2019-04-20T23:50:15.332Z,15.00
2019-04-20T23:52:56.420Z,14.90
2019-04-20T23:55:05.932Z,14.90
2019-04-20T23:57:35.563Z,14.80
